Huvudsida
METAR-TAF:

METAR-TAF

Flygplatser :

Kuopio flygplats

Kuopio, Finland

latitud: 63-01N, longitud: 027-48E, höjd: 98 m

Aktuellt väderrapport

Denna rapport gjordes för 8 minuter sedan, klockan 18:50 UTC
Vind 7 kt från väst
Temperatur 6°C
Fuktighet 75%
Tryck 1011 hPa
Sikt 10 km eller mer
Inga moln under 1 500 m eller inga cumulonimbus

METAR: EFKU 201850Z AUTO 28007KT CAVOK 06/02 Q1011

Tid: 21:58 (18:58 UTC)

Väderprognos

Denna rapport gjordes för 1 timme och 26 minuter sedan, klockan 17:32 UTC
Prognos gäller från 20 kl. 18 UTC till 21 kl. 18 UTC
Vind 6 kt från väst
Sikt 10 km eller mer
Inga moln under 1 500 m eller inga cumulonimbus
Temporärt
från 21 kl. 12 UTC till 21 kl. 18 UTC
Sikt: 6000 m
lätt regn

TAF: EFKU 201732Z 2018/2118 28006KT CAVOK TEMPO 2112/2118 6000 -RA

Aktuella väderrapporter och prognoser från 4000 flygplatser (METAR- och TAF-rapporter).

De tillgängliga stationerna syns som gula och röda prickar på kartan.

För musen över prickarna för att se namnen på stationerna.

Klicka sedan för att få väderrapporter och prognoser.

För att ändra kartan: Klicka på de gröna knapparna med ett svart kors på för att zooma in; den gröna knappen med ett streck på för att zooma ut; eller på de gröna pilarna för angränsande kartor.


METAR-TAF: